sensor_id;sensor_type;location;lat;lon;timestamp;pressure;altitude;pressure_sealevel;temperature
9119;BMP180;4594;50.994;7.126;2023-07-31T00:00:27;100322.00;;;22.10
9119;BMP180;4594;50.994;7.126;2023-07-31T00:02:54;100335.00;;;22.10
9119;BMP180;4594;50.994;7.126;2023-07-31T00:05:21;100325.00;;;22.10
9119;BMP180;4594;50.994;7.126;2023-07-31T00:07:46;100324.00;;;22.10
9119;BMP180;4594;50.994;7.126;2023-07-31T00:10:12;100322.00;;;22.10
9119;BMP180;4594;50.994;7.126;2023-07-31T00:12:41;100309.00;;;22.20
9119;BMP180;4594;50.994;7.126;2023-07-31T00:15:08;100320.00;;;22.20
9119;BMP180;4594;50.994;7.126;2023-07-31T00:17:34;100314.00;;;22.10
9119;BMP180;4594;50.994;7.126;2023-07-31T00:20:00;100319.00;;;22.20
9119;BMP180;4594;50.994;7.126;2023-07-31T00:22:25;100325.00;;;22.10
9119;BMP180;4594;50.994;7.126;2023-07-31T00:24:51;100322.00;;;22.20
9119;BMP180;4594;50.994;7.126;2023-07-31T00:27:17;100319.00;;;22.20
9119;BMP180;4594;50.994;7.126;2023-07-31T00:29:42;100320.00;;;22.10
9119;BMP180;4594;50.994;7.126;2023-07-31T00:32:08;100321.00;;;22.10
9119;BMP180;4594;50.994;7.126;2023-07-31T00:34:34;100310.00;;;22.10
9119;BMP180;4594;50.994;7.126;2023-07-31T00:37:00;100317.00;;;22.20
9119;BMP180;4594;50.994;7.126;2023-07-31T00:39:25;100320.00;;;22.20
9119;BMP180;4594;50.994;7.126;2023-07-31T00:41:51;100308.00;;;22.20
9119;BMP180;4594;50.994;7.126;2023-07-31T00:44:17;100319.00;;;22.20
9119;BMP180;4594;50.994;7.126;2023-07-31T00:46:44;100309.00;;;22.20
9119;BMP180;4594;50.994;7.126;2023-07-31T00:49:10;100303.00;;;22.10
9119;BMP180;4594;50.994;7.126;2023-07-31T00:51:36;100305.00;;;22.10
9119;BMP180;4594;50.994;7.126;2023-07-31T00:54:03;100295.00;;;22.20
9119;BMP180;4594;50.994;7.126;2023-07-31T00:56:29;100296.00;;;22.10
9119;BMP180;4594;50.994;7.126;2023-07-31T00:58:55;100302.00;;;22.10
9119;BMP180;4594;50.994;7.126;2023-07-31T01:01:21;100295.00;;;22.10
9119;BMP180;4594;50.994;7.126;2023-07-31T01:03:49;100280.00;;;22.10
9119;BMP180;4594;50.994;7.126;2023-07-31T01:12:01;100276.00;;;22.10
9119;BMP180;4594;50.994;7.126;2023-07-31T01:14:28;100269.00;;;22.10
9119;BMP180;4594;50.994;7.126;2023-07-31T01:16:55;100270.00;;;22.10
9119;BMP180;4594;50.994;7.126;2023-07-31T01:19:25;100273.00;;;22.10
9119;BMP180;4594;50.994;7.126;2023-07-31T01:24:57;100280.00;;;22.10
9119;BMP180;4594;50.994;7.126;2023-07-31T01:27:31;100282.00;;;22.10
9119;BMP180;4594;50.994;7.126;2023-07-31T01:30:18;100269.00;;;22.10
9119;BMP180;4594;50.994;7.126;2023-07-31T01:32:48;100278.00;;;22.10
9119;BMP180;4594;50.994;7.126;2023-07-31T01:35:15;100280.00;;;22.00
9119;BMP180;4594;50.994;7.126;2023-07-31T01:37:41;100274.00;;;22.10
9119;BMP180;4594;50.994;7.126;2023-07-31T01:40:09;100281.00;;;22.10
9119;BMP180;4594;50.994;7.126;2023-07-31T01:42:34;100279.00;;;22.00
9119;BMP180;4594;50.994;7.126;2023-07-31T01:45:00;100285.00;;;22.10
9119;BMP180;4594;50.994;7.126;2023-07-31T01:47:26;100279.00;;;22.00
9119;BMP180;4594;50.994;7.126;2023-07-31T01:49:51;100276.00;;;22.00
9119;BMP180;4594;50.994;7.126;2023-07-31T01:52:17;100271.00;;;22.00
9119;BMP180;4594;50.994;7.126;2023-07-31T01:54:43;100273.00;;;22.10
9119;BMP180;4594;50.994;7.126;2023-07-31T01:57:08;100272.00;;;22.10
9119;BMP180;4594;50.994;7.126;2023-07-31T01:59:34;100272.00;;;22.10
9119;BMP180;4594;50.994;7.126;2023-07-31T02:02:00;100259.00;;;22.00
9119;BMP180;4594;50.994;7.126;2023-07-31T02:04:25;100265.00;;;22.00
9119;BMP180;4594;50.994;7.126;2023-07-31T02:06:53;100264.00;;;22.00
9119;BMP180;4594;50.994;7.126;2023-07-31T02:09:18;100265.00;;;22.10
9119;BMP180;4594;50.994;7.126;2023-07-31T02:11:44;100253.00;;;22.10
9119;BMP180;4594;50.994;7.126;2023-07-31T02:14:10;100261.00;;;22.10
9119;BMP180;4594;50.994;7.126;2023-07-31T02:16:35;100266.00;;;22.10
9119;BMP180;4594;50.994;7.126;2023-07-31T02:19:01;100263.00;;;22.10
9119;BMP180;4594;50.994;7.126;2023-07-31T02:21:27;100252.00;;;22.10
9119;BMP180;4594;50.994;7.126;2023-07-31T02:23:52;100247.00;;;22.20
9119;BMP180;4594;50.994;7.126;2023-07-31T02:26:18;100255.00;;;22.10
9119;BMP180;4594;50.994;7.126;2023-07-31T02:28:44;100248.00;;;22.10
9119;BMP180;4594;50.994;7.126;2023-07-31T02:31:09;100247.00;;;22.10
9119;BMP180;4594;50.994;7.126;2023-07-31T02:33:35;100246.00;;;22.10
9119;BMP180;4594;50.994;7.126;2023-07-31T02:36:00;100241.00;;;22.10
9119;BMP180;4594;50.994;7.126;2023-07-31T02:38:26;100240.00;;;22.10
9119;BMP180;4594;50.994;7.126;2023-07-31T02:40:52;100246.00;;;22.10
9119;BMP180;4594;50.994;7.126;2023-07-31T02:43:17;100240.00;;;22.20
9119;BMP180;4594;50.994;7.126;2023-07-31T02:45:43;100242.00;;;22.20
9119;BMP180;4594;50.994;7.126;2023-07-31T02:48:09;100246.00;;;22.20
9119;BMP180;4594;50.994;7.126;2023-07-31T02:50:34;100237.00;;;22.20
9119;BMP180;4594;50.994;7.126;2023-07-31T02:53:00;100249.00;;;22.30
9119;BMP180;4594;50.994;7.126;2023-07-31T02:55:26;100236.00;;;22.30
9119;BMP180;4594;50.994;7.126;2023-07-31T02:57:51;100237.00;;;22.30
9119;BMP180;4594;50.994;7.126;2023-07-31T03:00:18;100236.00;;;22.30
9119;BMP180;4594;50.994;7.126;2023-07-31T03:02:44;100235.00;;;22.30
9119;BMP180;4594;50.994;7.126;2023-07-31T03:05:09;100219.00;;;22.30
9119;BMP180;4594;50.994;7.126;2023-07-31T03:07:35;100213.00;;;22.30
9119;BMP180;4594;50.994;7.126;2023-07-31T03:10:01;100214.00;;;22.30
9119;BMP180;4594;50.994;7.126;2023-07-31T03:12:27;100211.00;;;22.40
9119;BMP180;4594;50.994;7.126;2023-07-31T03:14:52;100223.00;;;22.40
9119;BMP180;4594;50.994;7.126;2023-07-31T03:17:18;100214.00;;;22.40
9119;BMP180;4594;50.994;7.126;2023-07-31T03:19:44;100207.00;;;22.40
9119;BMP180;4594;50.994;7.126;2023-07-31T03:22:09;100212.00;;;22.40
9119;BMP180;4594;50.994;7.126;2023-07-31T03:24:35;100197.00;;;22.40
9119;BMP180;4594;50.994;7.126;2023-07-31T03:27:01;100200.00;;;22.40
9119;BMP180;4594;50.994;7.126;2023-07-31T03:29:26;100199.00;;;22.40
9119;BMP180;4594;50.994;7.126;2023-07-31T03:31:52;100195.00;;;22.40
9119;BMP180;4594;50.994;7.126;2023-07-31T03:34:18;100189.00;;;22.40
9119;BMP180;4594;50.994;7.126;2023-07-31T03:36:44;100187.00;;;22.50
9119;BMP180;4594;50.994;7.126;2023-07-31T03:39:10;100186.00;;;22.50
9119;BMP180;4594;50.994;7.126;2023-07-31T03:41:35;100186.00;;;22.50
9119;BMP180;4594;50.994;7.126;2023-07-31T03:44:01;100182.00;;;22.50
9119;BMP180;4594;50.994;7.126;2023-07-31T03:46:27;100183.00;;;22.50
9119;BMP180;4594;50.994;7.126;2023-07-31T03:48:52;100189.00;;;22.50
9119;BMP180;4594;50.994;7.126;2023-07-31T03:51:18;100197.00;;;22.50
9119;BMP180;4594;50.994;7.126;2023-07-31T03:53:44;100191.00;;;22.60
9119;BMP180;4594;50.994;7.126;2023-07-31T03:56:10;100193.00;;;22.60
9119;BMP180;4594;50.994;7.126;2023-07-31T03:58:36;100198.00;;;22.60
9119;BMP180;4594;50.994;7.126;2023-07-31T04:01:03;100192.00;;;22.60
9119;BMP180;4594;50.994;7.126;2023-07-31T04:03:29;100200.00;;;22.70
9119;BMP180;4594;50.994;7.126;2023-07-31T04:05:56;100181.00;;;22.70
9119;BMP180;4594;50.994;7.126;2023-07-31T04:08:22;100176.00;;;22.70
9119;BMP180;4594;50.994;7.126;2023-07-31T04:10:48;100197.00;;;22.70
9119;BMP180;4594;50.994;7.126;2023-07-31T04:13:14;100189.00;;;22.70
9119;BMP180;4594;50.994;7.126;2023-07-31T04:15:40;100191.00;;;22.70
9119;BMP180;4594;50.994;7.126;2023-07-31T04:18:06;100187.00;;;22.80
9119;BMP180;4594;50.994;7.126;2023-07-31T04:20:32;100181.00;;;22.80
9119;BMP180;4594;50.994;7.126;2023-07-31T04:22:58;100181.00;;;22.80
9119;BMP180;4594;50.994;7.126;2023-07-31T04:25:24;100168.00;;;22.90
9119;BMP180;4594;50.994;7.126;2023-07-31T04:27:49;100180.00;;;22.90
9119;BMP180;4594;50.994;7.126;2023-07-31T04:30:15;100173.00;;;22.90
9119;BMP180;4594;50.994;7.126;2023-07-31T04:32:41;100180.00;;;23.00
9119;BMP180;4594;50.994;7.126;2023-07-31T04:35:07;100171.00;;;23.00
9119;BMP180;4594;50.994;7.126;2023-07-31T04:37:33;100169.00;;;23.10
9119;BMP180;4594;50.994;7.126;2023-07-31T04:39:58;100169.00;;;23.10
9119;BMP180;4594;50.994;7.126;2023-07-31T04:42:24;100171.00;;;23.10
9119;BMP180;4594;50.994;7.126;2023-07-31T04:44:50;100172.00;;;23.20
9119;BMP180;4594;50.994;7.126;2023-07-31T04:47:16;100160.00;;;23.20
9119;BMP180;4594;50.994;7.126;2023-07-31T04:49:41;100178.00;;;23.20
9119;BMP180;4594;50.994;7.126;2023-07-31T04:52:07;100165.00;;;23.20
9119;BMP180;4594;50.994;7.126;2023-07-31T04:54:33;100168.00;;;23.20
9119;BMP180;4594;50.994;7.126;2023-07-31T04:56:58;100167.00;;;23.20
9119;BMP180;4594;50.994;7.126;2023-07-31T04:59:24;100157.00;;;23.30
9119;BMP180;4594;50.994;7.126;2023-07-31T05:01:50;100168.00;;;23.30
9119;BMP180;4594;50.994;7.126;2023-07-31T05:04:15;100156.00;;;23.30
9119;BMP180;4594;50.994;7.126;2023-07-31T05:06:41;100159.00;;;23.30
9119;BMP180;4594;50.994;7.126;2023-07-31T05:09:07;100155.00;;;23.30
9119;BMP180;4594;50.994;7.126;2023-07-31T05:11:35;100155.00;;;23.40
9119;BMP180;4594;50.994;7.126;2023-07-31T05:14:00;100147.00;;;23.40
9119;BMP180;4594;50.994;7.126;2023-07-31T05:16:26;100138.00;;;23.40
9119;BMP180;4594;50.994;7.126;2023-07-31T05:18:52;100141.00;;;23.40
9119;BMP180;4594;50.994;7.126;2023-07-31T05:21:17;100145.00;;;23.50
9119;BMP180;4594;50.994;7.126;2023-07-31T05:23:43;100138.00;;;23.50
9119;BMP180;4594;50.994;7.126;2023-07-31T05:26:09;100128.00;;;23.60
9119;BMP180;4594;50.994;7.126;2023-07-31T05:28:38;100123.00;;;23.60
9119;BMP180;4594;50.994;7.126;2023-07-31T05:31:05;100128.00;;;23.70
9119;BMP180;4594;50.994;7.126;2023-07-31T05:33:31;100125.00;;;23.70
9119;BMP180;4594;50.994;7.126;2023-07-31T05:35:57;100130.00;;;23.70
9119;BMP180;4594;50.994;7.126;2023-07-31T05:38:23;100125.00;;;23.70
9119;BMP180;4594;50.994;7.126;2023-07-31T05:40:48;100125.00;;;23.80
9119;BMP180;4594;50.994;7.126;2023-07-31T05:43:14;100111.00;;;23.80
9119;BMP180;4594;50.994;7.126;2023-07-31T05:45:42;100105.00;;;23.90
9119;BMP180;4594;50.994;7.126;2023-07-31T05:48:07;100097.00;;;23.90
9119;BMP180;4594;50.994;7.126;2023-07-31T05:50:33;100092.00;;;23.90
9119;BMP180;4594;50.994;7.126;2023-07-31T05:52:59;100088.00;;;24.00
9119;BMP180;4594;50.994;7.126;2023-07-31T05:55:25;100077.00;;;24.00
9119;BMP180;4594;50.994;7.126;2023-07-31T05:57:54;100075.00;;;24.00
9119;BMP180;4594;50.994;7.126;2023-07-31T06:00:20;100070.00;;;24.10
9119;BMP180;4594;50.994;7.126;2023-07-31T06:02:47;100082.00;;;24.10
9119;BMP180;4594;50.994;7.126;2023-07-31T06:05:13;100082.00;;;24.10
9119;BMP180;4594;50.994;7.126;2023-07-31T06:07:39;100081.00;;;24.10
9119;BMP180;4594;50.994;7.126;2023-07-31T06:10:05;100079.00;;;24.10
9119;BMP180;4594;50.994;7.126;2023-07-31T06:12:35;100097.00;;;24.10
9119;BMP180;4594;50.994;7.126;2023-07-31T06:15:02;100099.00;;;24.10
9119;BMP180;4594;50.994;7.126;2023-07-31T06:17:28;100096.00;;;24.00
9119;BMP180;4594;50.994;7.126;2023-07-31T06:19:56;100098.00;;;24.00
9119;BMP180;4594;50.994;7.126;2023-07-31T06:22:22;100099.00;;;24.00
9119;BMP180;4594;50.994;7.126;2023-07-31T06:24:48;100108.00;;;23.90
9119;BMP180;4594;50.994;7.126;2023-07-31T06:27:14;100102.00;;;23.90
9119;BMP180;4594;50.994;7.126;2023-07-31T06:29:39;100105.00;;;23.80
9119;BMP180;4594;50.994;7.126;2023-07-31T06:32:05;100096.00;;;23.80
9119;BMP180;4594;50.994;7.126;2023-07-31T06:34:31;100098.00;;;23.70
9119;BMP180;4594;50.994;7.126;2023-07-31T06:36:57;100088.00;;;23.70
9119;BMP180;4594;50.994;7.126;2023-07-31T06:39:22;100095.00;;;23.60
9119;BMP180;4594;50.994;7.126;2023-07-31T06:41:48;100087.00;;;23.60
9119;BMP180;4594;50.994;7.126;2023-07-31T06:44:14;100078.00;;;23.50
9119;BMP180;4594;50.994;7.126;2023-07-31T06:46:39;100090.00;;;23.50
9119;BMP180;4594;50.994;7.126;2023-07-31T06:49:05;100085.00;;;23.40
9119;BMP180;4594;50.994;7.126;2023-07-31T06:51:31;100083.00;;;23.40
9119;BMP180;4594;50.994;7.126;2023-07-31T06:53:57;100084.00;;;23.50
9119;BMP180;4594;50.994;7.126;2023-07-31T06:56:23;100083.00;;;23.50
9119;BMP180;4594;50.994;7.126;2023-07-31T06:58:49;100070.00;;;23.50
9119;BMP180;4594;50.994;7.126;2023-07-31T07:01:15;100073.00;;;23.60
9119;BMP180;4594;50.994;7.126;2023-07-31T07:03:40;100086.00;;;23.60
9119;BMP180;4594;50.994;7.126;2023-07-31T07:06:06;100082.00;;;23.70
9119;BMP180;4594;50.994;7.126;2023-07-31T07:08:32;100074.00;;;23.70
9119;BMP180;4594;50.994;7.126;2023-07-31T07:10:58;100082.00;;;23.80
9119;BMP180;4594;50.994;7.126;2023-07-31T07:13:23;100083.00;;;23.90
9119;BMP180;4594;50.994;7.126;2023-07-31T07:15:50;100081.00;;;23.90
9119;BMP180;4594;50.994;7.126;2023-07-31T07:18:16;100079.00;;;24.00
9119;BMP180;4594;50.994;7.126;2023-07-31T07:20:51;100079.00;;;24.00
9119;BMP180;4594;50.994;7.126;2023-07-31T07:23:17;100073.00;;;24.00
9119;BMP180;4594;50.994;7.126;2023-07-31T07:25:45;100074.00;;;24.10
9119;BMP180;4594;50.994;7.126;2023-07-31T07:28:11;100068.00;;;24.10
9119;BMP180;4594;50.994;7.126;2023-07-31T07:30:36;100063.00;;;24.10
9119;BMP180;4594;50.994;7.126;2023-07-31T07:33:02;100074.00;;;24.20
9119;BMP180;4594;50.994;7.126;2023-07-31T07:35:28;100074.00;;;24.20
9119;BMP180;4594;50.994;7.126;2023-07-31T07:37:54;100069.00;;;24.10
9119;BMP180;4594;50.994;7.126;2023-07-31T07:40:20;100074.00;;;24.00
9119;BMP180;4594;50.994;7.126;2023-07-31T07:42:46;100070.00;;;24.00
9119;BMP180;4594;50.994;7.126;2023-07-31T07:45:12;100075.00;;;23.90
9119;BMP180;4594;50.994;7.126;2023-07-31T07:47:41;100078.00;;;23.90
9119;BMP180;4594;50.994;7.126;2023-07-31T07:50:08;100073.00;;;23.80
9119;BMP180;4594;50.994;7.126;2023-07-31T07:52:34;100065.00;;;23.70
9119;BMP180;4594;50.994;7.126;2023-07-31T07:55:00;100053.00;;;23.70
9119;BMP180;4594;50.994;7.126;2023-07-31T07:57:26;100074.00;;;23.60
9119;BMP180;4594;50.994;7.126;2023-07-31T07:59:52;100075.00;;;23.60
9119;BMP180;4594;50.994;7.126;2023-07-31T08:02:18;100078.00;;;23.60
9119;BMP180;4594;50.994;7.126;2023-07-31T08:04:43;100074.00;;;23.60
9119;BMP180;4594;50.994;7.126;2023-07-31T08:07:13;100070.00;;;23.60
9119;BMP180;4594;50.994;7.126;2023-07-31T08:09:39;100078.00;;;23.60
9119;BMP180;4594;50.994;7.126;2023-07-31T08:12:06;100070.00;;;23.60
9119;BMP180;4594;50.994;7.126;2023-07-31T08:14:32;100074.00;;;23.60
9119;BMP180;4594;50.994;7.126;2023-07-31T08:16:57;100085.00;;;23.60
9119;BMP180;4594;50.994;7.126;2023-07-31T08:19:23;100082.00;;;23.60
9119;BMP180;4594;50.994;7.126;2023-07-31T08:21:49;100064.00;;;23.60
9119;BMP180;4594;50.994;7.126;2023-07-31T08:24:14;100061.00;;;23.60
9119;BMP180;4594;50.994;7.126;2023-07-31T08:26:40;100064.00;;;23.70
9119;BMP180;4594;50.994;7.126;2023-07-31T08:29:06;100074.00;;;23.70
9119;BMP180;4594;50.994;7.126;2023-07-31T08:31:32;100061.00;;;23.70
9119;BMP180;4594;50.994;7.126;2023-07-31T08:33:57;100060.00;;;23.80
9119;BMP180;4594;50.994;7.126;2023-07-31T08:36:23;100051.00;;;23.80
9119;BMP180;4594;50.994;7.126;2023-07-31T08:38:48;100049.00;;;23.80
9119;BMP180;4594;50.994;7.126;2023-07-31T08:41:16;100039.00;;;23.80
9119;BMP180;4594;50.994;7.126;2023-07-31T08:43:46;100033.00;;;23.80
9119;BMP180;4594;50.994;7.126;2023-07-31T08:46:12;100029.00;;;23.80
9119;BMP180;4594;50.994;7.126;2023-07-31T08:48:42;100031.00;;;23.80
9119;BMP180;4594;50.994;7.126;2023-07-31T08:51:08;100021.00;;;23.80
9119;BMP180;4594;50.994;7.126;2023-07-31T08:53:35;100029.00;;;23.80
9119;BMP180;4594;50.994;7.126;2023-07-31T08:56:01;100017.00;;;23.80
9119;BMP180;4594;50.994;7.126;2023-07-31T08:58:32;100019.00;;;23.70
9119;BMP180;4594;50.994;7.126;2023-07-31T09:01:03;100029.00;;;23.70
9119;BMP180;4594;50.994;7.126;2023-07-31T09:03:34;100022.00;;;23.70
9119;BMP180;4594;50.994;7.126;2023-07-31T09:06:02;100027.00;;;23.60
9119;BMP180;4594;50.994;7.126;2023-07-31T09:08:31;100023.00;;;23.70
9119;BMP180;4594;50.994;7.126;2023-07-31T09:11:01;100030.00;;;23.70
9119;BMP180;4594;50.994;7.126;2023-07-31T09:13:32;100029.00;;;23.70
9119;BMP180;4594;50.994;7.126;2023-07-31T09:15:58;100035.00;;;23.70
9119;BMP180;4594;50.994;7.126;2023-07-31T09:18:23;100034.00;;;23.70
9119;BMP180;4594;50.994;7.126;2023-07-31T09:21:03;100036.00;;;23.70
9119;BMP180;4594;50.994;7.126;2023-07-31T09:23:45;100033.00;;;23.60
9119;BMP180;4594;50.994;7.126;2023-07-31T09:26:11;100028.00;;;23.60
9119;BMP180;4594;50.994;7.126;2023-07-31T09:28:53;100041.00;;;23.60
9119;BMP180;4594;50.994;7.126;2023-07-31T09:31:41;100038.00;;;23.60
9119;BMP180;4594;50.994;7.126;2023-07-31T09:34:07;100041.00;;;23.60
9119;BMP180;4594;50.994;7.126;2023-07-31T09:36:44;100025.00;;;23.60
9119;BMP180;4594;50.994;7.126;2023-07-31T09:39:12;100015.00;;;23.50
9119;BMP180;4594;50.994;7.126;2023-07-31T09:41:53;100024.00;;;23.50
9119;BMP180;4594;50.994;7.126;2023-07-31T09:44:19;100020.00;;;23.60
9119;BMP180;4594;50.994;7.126;2023-07-31T09:46:45;100020.00;;;23.60
9119;BMP180;4594;50.994;7.126;2023-07-31T09:49:14;100014.00;;;23.60
9119;BMP180;4594;50.994;7.126;2023-07-31T09:51:42;100008.00;;;23.70
9119;BMP180;4594;50.994;7.126;2023-07-31T09:54:15;100007.00;;;23.70
9119;BMP180;4594;50.994;7.126;2023-07-31T09:56:48;100002.00;;;23.70
9119;BMP180;4594;50.994;7.126;2023-07-31T09:59:16;100005.00;;;23.60
9119;BMP180;4594;50.994;7.126;2023-07-31T10:01:45;99993.00;;;23.60
9119;BMP180;4594;50.994;7.126;2023-07-31T10:04:13;99997.00;;;23.60
9119;BMP180;4594;50.994;7.126;2023-07-31T10:06:40;99990.00;;;23.60
9119;BMP180;4594;50.994;7.126;2023-07-31T10:09:15;99981.00;;;23.60
9119;BMP180;4594;50.994;7.126;2023-07-31T10:11:50;99989.00;;;23.60
9119;BMP180;4594;50.994;7.126;2023-07-31T10:14:20;99976.00;;;23.60
9119;BMP180;4594;50.994;7.126;2023-07-31T10:16:47;99983.00;;;23.60
9119;BMP180;4594;50.994;7.126;2023-07-31T10:19:12;99979.00;;;23.60
9119;BMP180;4594;50.994;7.126;2023-07-31T10:21:38;99977.00;;;23.60
9119;BMP180;4594;50.994;7.126;2023-07-31T10:24:05;99978.00;;;23.60
9119;BMP180;4594;50.994;7.126;2023-07-31T10:26:32;99976.00;;;23.70
9119;BMP180;4594;50.994;7.126;2023-07-31T10:29:01;99981.00;;;23.70
9119;BMP180;4594;50.994;7.126;2023-07-31T10:31:28;99973.00;;;23.70
9119;BMP180;4594;50.994;7.126;2023-07-31T10:33:57;99980.00;;;23.70
9119;BMP180;4594;50.994;7.126;2023-07-31T10:36:23;99979.00;;;23.80
9119;BMP180;4594;50.994;7.126;2023-07-31T10:38:50;99979.00;;;23.90
9119;BMP180;4594;50.994;7.126;2023-07-31T10:41:18;99970.00;;;23.90
9119;BMP180;4594;50.994;7.126;2023-07-31T10:43:46;99974.00;;;24.00
9119;BMP180;4594;50.994;7.126;2023-07-31T10:46:14;99990.00;;;24.10
9119;BMP180;4594;50.994;7.126;2023-07-31T10:48:41;99979.00;;;24.20
9119;BMP180;4594;50.994;7.126;2023-07-31T10:51:11;99977.00;;;24.30
9119;BMP180;4594;50.994;7.126;2023-07-31T10:53:39;99981.00;;;24.40
9119;BMP180;4594;50.994;7.126;2023-07-31T10:56:08;99984.00;;;24.40
9119;BMP180;4594;50.994;7.126;2023-07-31T10:58:36;99978.00;;;24.50
9119;BMP180;4594;50.994;7.126;2023-07-31T11:01:05;99976.00;;;24.60
9119;BMP180;4594;50.994;7.126;2023-07-31T11:03:51;99978.00;;;24.70
9119;BMP180;4594;50.994;7.126;2023-07-31T11:06:19;99981.00;;;24.70
9119;BMP180;4594;50.994;7.126;2023-07-31T11:08:50;99976.00;;;24.80
9119;BMP180;4594;50.994;7.126;2023-07-31T11:11:19;99979.00;;;24.80
9119;BMP180;4594;50.994;7.126;2023-07-31T11:13:53;99976.00;;;24.70
9119;BMP180;4594;50.994;7.126;2023-07-31T11:16:24;99981.00;;;24.70
9119;BMP180;4594;50.994;7.126;2023-07-31T11:18:52;99989.00;;;24.80
9119;BMP180;4594;50.994;7.126;2023-07-31T11:21:22;99992.00;;;24.70
9119;BMP180;4594;50.994;7.126;2023-07-31T11:23:53;99994.00;;;24.70
9119;BMP180;4594;50.994;7.126;2023-07-31T11:26:19;99988.00;;;24.70
9119;BMP180;4594;50.994;7.126;2023-07-31T11:28:50;99975.00;;;24.70
9119;BMP180;4594;50.994;7.126;2023-07-31T11:31:17;99978.00;;;24.70
9119;BMP180;4594;50.994;7.126;2023-07-31T11:33:44;99972.00;;;24.70
9119;BMP180;4594;50.994;7.126;2023-07-31T11:36:20;99978.00;;;24.70
9119;BMP180;4594;50.994;7.126;2023-07-31T11:38:46;99984.00;;;24.70
9119;BMP180;4594;50.994;7.126;2023-07-31T11:41:15;99974.00;;;24.70
9119;BMP180;4594;50.994;7.126;2023-07-31T11:43:45;99961.00;;;24.80
9119;BMP180;4594;50.994;7.126;2023-07-31T11:46:11;99960.00;;;24.80
9119;BMP180;4594;50.994;7.126;2023-07-31T11:48:37;99945.00;;;24.90
9119;BMP180;4594;50.994;7.126;2023-07-31T11:51:06;99940.00;;;25.00
9119;BMP180;4594;50.994;7.126;2023-07-31T11:53:53;99949.00;;;25.00
9119;BMP180;4594;50.994;7.126;2023-07-31T11:56:23;99946.00;;;25.00
9119;BMP180;4594;50.994;7.126;2023-07-31T11:58:59;99943.00;;;25.10
9119;BMP180;4594;50.994;7.126;2023-07-31T12:01:26;99943.00;;;25.20
9119;BMP180;4594;50.994;7.126;2023-07-31T12:03:54;99943.00;;;25.30
9119;BMP180;4594;50.994;7.126;2023-07-31T12:06:20;99947.00;;;25.40
9119;BMP180;4594;50.994;7.126;2023-07-31T12:08:47;99940.00;;;25.40
9119;BMP180;4594;50.994;7.126;2023-07-31T12:11:12;99933.00;;;25.40
9119;BMP180;4594;50.994;7.126;2023-07-31T12:13:43;99938.00;;;25.30
9119;BMP180;4594;50.994;7.126;2023-07-31T12:16:09;99927.00;;;25.30
9119;BMP180;4594;50.994;7.126;2023-07-31T12:18:38;99933.00;;;25.20
9119;BMP180;4594;50.994;7.126;2023-07-31T12:21:07;99915.00;;;25.20
9119;BMP180;4594;50.994;7.126;2023-07-31T12:23:35;99936.00;;;25.10
9119;BMP180;4594;50.994;7.126;2023-07-31T12:26:16;99928.00;;;25.10
9119;BMP180;4594;50.994;7.126;2023-07-31T12:28:47;99924.00;;;25.10
9119;BMP180;4594;50.994;7.126;2023-07-31T12:31:16;99932.00;;;25.00
9119;BMP180;4594;50.994;7.126;2023-07-31T12:33:44;99932.00;;;25.00
9119;BMP180;4594;50.994;7.126;2023-07-31T12:36:13;99926.00;;;25.00
9119;BMP180;4594;50.994;7.126;2023-07-31T12:38:39;99916.00;;;25.00
9119;BMP180;4594;50.994;7.126;2023-07-31T12:41:05;99932.00;;;25.00
9119;BMP180;4594;50.994;7.126;2023-07-31T12:43:36;99918.00;;;25.00
9119;BMP180;4594;50.994;7.126;2023-07-31T12:46:02;99920.00;;;25.00
9119;BMP180;4594;50.994;7.126;2023-07-31T12:48:29;99925.00;;;24.90
9119;BMP180;4594;50.994;7.126;2023-07-31T12:50:55;99930.00;;;24.90
9119;BMP180;4594;50.994;7.126;2023-07-31T12:53:20;99930.00;;;24.90
9119;BMP180;4594;50.994;7.126;2023-07-31T12:55:46;99922.00;;;24.90
9119;BMP180;4594;50.994;7.126;2023-07-31T12:58:12;99927.00;;;24.90
9119;BMP180;4594;50.994;7.126;2023-07-31T13:00:38;99923.00;;;24.80
9119;BMP180;4594;50.994;7.126;2023-07-31T13:03:03;99930.00;;;24.80
9119;BMP180;4594;50.994;7.126;2023-07-31T13:05:29;99906.00;;;24.90
9119;BMP180;4594;50.994;7.126;2023-07-31T13:07:55;99906.00;;;24.90
9119;BMP180;4594;50.994;7.126;2023-07-31T13:10:23;99911.00;;;24.90
9119;BMP180;4594;50.994;7.126;2023-07-31T13:12:49;99893.00;;;24.90
9119;BMP180;4594;50.994;7.126;2023-07-31T13:15:15;99892.00;;;24.90
9119;BMP180;4594;50.994;7.126;2023-07-31T13:17:41;99882.00;;;25.00
9119;BMP180;4594;50.994;7.126;2023-07-31T13:20:07;99870.00;;;25.00
9119;BMP180;4594;50.994;7.126;2023-07-31T13:22:33;99871.00;;;25.00
9119;BMP180;4594;50.994;7.126;2023-07-31T13:24:59;99879.00;;;25.00
9119;BMP180;4594;50.994;7.126;2023-07-31T13:27:25;99872.00;;;25.00
9119;BMP180;4594;50.994;7.126;2023-07-31T13:29:51;99870.00;;;25.10
9119;BMP180;4594;50.994;7.126;2023-07-31T13:32:19;99876.00;;;25.10
9119;BMP180;4594;50.994;7.126;2023-07-31T13:34:46;99861.00;;;25.10
9119;BMP180;4594;50.994;7.126;2023-07-31T13:37:12;99865.00;;;25.00
9119;BMP180;4594;50.994;7.126;2023-07-31T13:39:39;99859.00;;;25.00
9119;BMP180;4594;50.994;7.126;2023-07-31T13:42:06;99854.00;;;25.10
9119;BMP180;4594;50.994;7.126;2023-07-31T13:44:34;99854.00;;;25.20
9119;BMP180;4594;50.994;7.126;2023-07-31T13:47:00;99846.00;;;25.20
9119;BMP180;4594;50.994;7.126;2023-07-31T13:49:27;99856.00;;;25.30
9119;BMP180;4594;50.994;7.126;2023-07-31T13:51:53;99835.00;;;25.40
9119;BMP180;4594;50.994;7.126;2023-07-31T13:54:18;99839.00;;;25.50
9119;BMP180;4594;50.994;7.126;2023-07-31T13:56:44;99840.00;;;25.60
9119;BMP180;4594;50.994;7.126;2023-07-31T13:59:11;99854.00;;;25.70
9119;BMP180;4594;50.994;7.126;2023-07-31T14:01:37;99850.00;;;25.70
9119;BMP180;4594;50.994;7.126;2023-07-31T14:04:03;99833.00;;;25.90
9119;BMP180;4594;50.994;7.126;2023-07-31T14:06:28;99832.00;;;26.00
9119;BMP180;4594;50.994;7.126;2023-07-31T14:08:54;99839.00;;;26.20
9119;BMP180;4594;50.994;7.126;2023-07-31T14:11:22;99839.00;;;26.50
9119;BMP180;4594;50.994;7.126;2023-07-31T14:13:50;99832.00;;;26.50
9119;BMP180;4594;50.994;7.126;2023-07-31T14:16:16;99835.00;;;26.60
9119;BMP180;4594;50.994;7.126;2023-07-31T14:18:41;99827.00;;;26.60
9119;BMP180;4594;50.994;7.126;2023-07-31T14:21:07;99841.00;;;26.60
9119;BMP180;4594;50.994;7.126;2023-07-31T14:23:34;99840.00;;;26.50
9119;BMP180;4594;50.994;7.126;2023-07-31T14:26:00;99843.00;;;26.50
9119;BMP180;4594;50.994;7.126;2023-07-31T14:28:25;99839.00;;;26.40
9119;BMP180;4594;50.994;7.126;2023-07-31T14:30:51;99833.00;;;26.50
9119;BMP180;4594;50.994;7.126;2023-07-31T14:33:17;99833.00;;;26.40